»·PEaware :: PRD69 KTOA-0O2

PRD69 :: KTOA-0O2

FLIGHT INFORMATION

Flight Status: Arrived
Operator: Unknown
More flights by this operator :: More flights under this callsign
Pilot: Ryan B. (8502)
Aircraft: CESSNA 550 CITATION 2/S2/BRAVO
(C550)
More flights by this aircraft type
Origin: KTOA Zamperini
United States
Destination: 0O2 Baker
United States
More flights between these airports :: More routes between these airports
Route: +LAX170 LIMBO V64 SLI V21 AHEIM V394 CHRLT
File this flight plan on PilotEdge
Remarks:
Altitude:
(Current/Filed)
23,000ft
Speed:
(Current/Filed)
250kts
Departed: 30-Dec-19 03:31 PM
Arrived: 30-Dec-19 04:05 PM
Distance/Time
Traveled:
143nm/0:34
Distance/Time
To Go:
Arrived

Flight Plot

Page will automatically refresh every two minutes.

Flight plan parsing failed; only flown route is shown


Map Options




Map Legend


Flown Route
Filed Route
Departure Airport
Arrival Airport
Navaid (VOR, NDB)
Fix

Horizontal Profiles

Position Reports

Time Latitude Longitude Heading Altitude Ground
Speed
30-Dec-19 15:15 33.804116 -118.346507 133 97ft 0kts
30-Dec-19 15:16 33.804116 -118.346507 133 97ft 0kts
30-Dec-19 15:17 33.804116 -118.346507 133 97ft 0kts
30-Dec-19 15:18 33.804116 -118.346507 133 97ft 0kts
30-Dec-19 15:19 33.804116 -118.346507 133 97ft 0kts
30-Dec-19 15:20 33.804116 -118.346507 133 97ft 0kts
30-Dec-19 15:21 33.804116 -118.346507 133 97ft 0kts
30-Dec-19 15:22 33.804116 -118.346507 133 97ft 0kts
30-Dec-19 15:23 33.804116 -118.346507 133 97ft 0kts
30-Dec-19 15:25 33.804116 -118.346507 133 97ft 0kts
30-Dec-19 15:26 33.804116 -118.346507 133 97ft 0kts
30-Dec-19 15:27 33.803999 -118.346194 88 98ft 7kts
30-Dec-19 15:28 33.802337 -118.341038 129 102ft 22kts
30-Dec-19 15:29 33.798557 -118.335313 126 106ft 19kts
30-Dec-19 15:30 33.799688 -118.333031 305 100ft 4kts
30-Dec-19 15:31 33.823690 -118.369031 307 2047ft 203kts
30-Dec-19 15:32 33.859911 -118.424086 307 3214ft 220kts
30-Dec-19 15:33 33.856091 -118.497182 203 5964ft 285kts
30-Dec-19 15:34 33.792265 -118.458195 129 9635ft 280kts
30-Dec-19 15:35 33.731480 -118.416814 105 13338ft 262kts
30-Dec-19 15:36 33.740789 -118.333786 82 16571ft 263kts
30-Dec-19 15:37 33.752854 -118.254943 82 19608ft 268kts
30-Dec-19 15:38 33.767581 -118.158341 82 22390ft 287kts
30-Dec-19 15:39 33.783434 -118.057581 77 22995ft 346kts
30-Dec-19 15:40 33.813118 -117.942666 69 22994ft 379kts
30-Dec-19 15:41 33.899104 -117.873904 22 22996ft 398kts
30-Dec-19 15:42 34.001930 -117.824154 22 22995ft 401kts
30-Dec-19 15:43 34.098177 -117.759091 46 22995ft 397kts
30-Dec-19 15:44 34.160572 -117.676474 49 22991ft 396kts
30-Dec-19 15:45 34.234314 -117.576887 49 22993ft 396kts
30-Dec-19 15:45 34.295437 -117.494098 49 23029ft 396kts
30-Dec-19 15:46 34.368827 -117.394464 49 23078ft 395kts
30-Dec-19 15:48 34.453960 -117.278574 50 23101ft 396kts
30-Dec-19 15:48 34.515179 -117.195010 50 23061ft 397kts
30-Dec-19 15:49 34.586389 -117.097593 50 21469ft 380kts
30-Dec-19 15:51 34.666354 -116.987812 51 19312ft 365kts
30-Dec-19 15:51 34.721881 -116.911364 51 17983ft 357kts
30-Dec-19 15:52 34.786565 -116.822068 51 16611ft 347kts
30-Dec-19 15:53 34.849505 -116.735063 51 15361ft 336kts
30-Dec-19 15:54 34.898818 -116.666933 50 14364ft 324kts
30-Dec-19 15:55 34.945548 -116.602457 49 13392ft 309kts
30-Dec-19 15:56 35.014350 -116.507652 48 11870ft 281kts
30-Dec-19 15:57 35.064552 -116.430404 54 9780ft 290kts
30-Dec-19 15:58 35.108269 -116.355485 50 8820ft 254kts
30-Dec-19 15:59 35.151294 -116.289412 50 7927ft 246kts
30-Dec-19 16:00 35.189663 -116.227319 56 6938ft 207kts
30-Dec-19 16:01 35.216238 -116.166988 63 5154ft 197kts
30-Dec-19 16:02 35.237579 -116.110620 63 2965ft 166kts
30-Dec-19 16:03 35.262932 -116.078098 22 1547ft 109kts
30-Dec-19 16:04 35.287593 -116.081675 347 924ft 31kts
30-Dec-19 16:05 35.287692 -116.081192 73 925ft 0kts
30-Dec-19 16:06 35.287692 -116.081192 73 925ft 0kts
30-Dec-19 16:07 35.287692 -116.081192 73 925ft 0kts
30-Dec-19 16:08 35.287692 -116.081192 73 925ft 0kts
30-Dec-19 16:09 35.287692 -116.081192 73 925ft 0kts
30-Dec-19 16:10 35.287692 -116.081192 73 925ft 0kts
30-Dec-19 16:11 35.287692 -116.081192 73 925ft 0kts
30-Dec-19 16:12 35.287692 -116.081192 73 925ft 0kts
30-Dec-19 16:13 35.287692 -116.081192 73 925ft 0kts
30-Dec-19 16:14 35.287692 -116.081192 73 925ft 0kts
30-Dec-19 16:15 35.287692 -116.081192 73 925ft 0kts
30-Dec-19 16:16 35.287692 -116.081192 73 925ft 0kts
30-Dec-19 16:17 35.287692 -116.081192 73 925ft 0kts
30-Dec-19 16:18 35.287692 -116.081192 73 925ft 0kts

Navigation Log

Ident Type
Flight plan parsing failed, navigation log unavailable